sensor_id;sensor_type;location;lat;lon;timestamp;pressure;altitude;pressure_sealevel;temperature;humidity
39309;BME280;26019;47.510;19.122;2024-03-08T00:05:45;100565.03;;;5.30;100.00
39309;BME280;26019;47.510;19.122;2024-03-08T00:15:47;100565.75;;;5.24;100.00
39309;BME280;26019;47.510;19.122;2024-03-08T00:25:49;100569.91;;;5.17;100.00
39309;BME280;26019;47.510;19.122;2024-03-08T00:35:51;100560.69;;;5.27;100.00
39309;BME280;26019;47.510;19.122;2024-03-08T00:45:52;100558.22;;;5.32;100.00
39309;BME280;26019;47.510;19.122;2024-03-08T00:55:54;100560.19;;;5.45;100.00
39309;BME280;26019;47.510;19.122;2024-03-08T01:05:56;100546.94;;;5.22;100.00
39309;BME280;26019;47.510;19.122;2024-03-08T01:16:00;100541.16;;;5.34;100.00
39309;BME280;26019;47.510;19.122;2024-03-08T01:26:03;100537.72;;;5.32;100.00
39309;BME280;26019;47.510;19.122;2024-03-08T01:36:05;100540.50;;;5.44;100.00
39309;BME280;26019;47.510;19.122;2024-03-08T01:46:17;100542.16;;;5.41;100.00
39309;BME280;26019;47.510;19.122;2024-03-08T01:56:22;100532.81;;;5.43;100.00
39309;BME280;26019;47.510;19.122;2024-03-08T02:06:24;100532.72;;;5.38;100.00
39309;BME280;26019;47.510;19.122;2024-03-08T02:16:27;100543.72;;;5.34;100.00
39309;BME280;26019;47.510;19.122;2024-03-08T02:26:32;100542.91;;;5.35;100.00
39309;BME280;26019;47.510;19.122;2024-03-08T02:36:33;100542.69;;;5.24;100.00
39309;BME280;26019;47.510;19.122;2024-03-08T02:46:36;100542.50;;;5.13;100.00
39309;BME280;26019;47.510;19.122;2024-03-08T02:56:38;100546.97;;;5.23;100.00
39309;BME280;26019;47.510;19.122;2024-03-08T03:06:40;100551.25;;;5.25;100.00
39309;BME280;26019;47.510;19.122;2024-03-08T03:16:42;100551.97;;;5.17;100.00
39309;BME280;26019;47.510;19.122;2024-03-08T03:26:45;100554.72;;;5.27;100.00
39309;BME280;26019;47.510;19.122;2024-03-08T03:36:48;100556.31;;;5.21;100.00
39309;BME280;26019;47.510;19.122;2024-03-08T03:46:51;100558.94;;;5.25;100.00
39309;BME280;26019;47.510;19.122;2024-03-08T03:56:53;100559.88;;;5.28;100.00
39309;BME280;26019;47.510;19.122;2024-03-08T04:06:57;100559.84;;;5.27;100.00
39309;BME280;26019;47.510;19.122;2024-03-08T04:16:59;100558.84;;;5.20;100.00
39309;BME280;26019;47.510;19.122;2024-03-08T04:27:01;100560.41;;;5.12;100.00
39309;BME280;26019;47.510;19.122;2024-03-08T04:37:05;100562.94;;;5.10;100.00
39309;BME280;26019;47.510;19.122;2024-03-08T04:47:07;100562.13;;;5.13;100.00
39309;BME280;26019;47.510;19.122;2024-03-08T04:57:09;100571.56;;;5.15;100.00
39309;BME280;26019;47.510;19.122;2024-03-08T05:07:17;100576.63;;;5.12;100.00
39309;BME280;26019;47.510;19.122;2024-03-08T05:17:19;100567.78;;;4.98;100.00
39309;BME280;26019;47.510;19.122;2024-03-08T05:27:21;100579.66;;;4.92;100.00
39309;BME280;26019;47.510;19.122;2024-03-08T05:37:23;100585.41;;;4.82;100.00
39309;BME280;26019;47.510;19.122;2024-03-08T05:47:25;100588.22;;;4.95;100.00
39309;BME280;26019;47.510;19.122;2024-03-08T05:57:32;100609.78;;;5.04;100.00
39309;BME280;26019;47.510;19.122;2024-03-08T06:07:34;100606.56;;;5.15;100.00
39309;BME280;26019;47.510;19.122;2024-03-08T06:17:36;100611.25;;;5.36;100.00
39309;BME280;26019;47.510;19.122;2024-03-08T06:27:40;100612.63;;;5.61;100.00
39309;BME280;26019;47.510;19.122;2024-03-08T06:37:44;100623.56;;;5.52;100.00
39309;BME280;26019;47.510;19.122;2024-03-08T06:47:47;100632.50;;;5.73;100.00
39309;BME280;26019;47.510;19.122;2024-03-08T06:57:50;100633.75;;;5.95;100.00
39309;BME280;26019;47.510;19.122;2024-03-08T07:07:52;100634.94;;;6.11;100.00
39309;BME280;26019;47.510;19.122;2024-03-08T07:17:56;100640.72;;;6.01;100.00
39309;BME280;26019;47.510;19.122;2024-03-08T07:27:58;100644.91;;;5.96;100.00
39309;BME280;26019;47.510;19.122;2024-03-08T07:38:06;100645.38;;;5.75;100.00
39309;BME280;26019;47.510;19.122;2024-03-08T07:48:09;100646.44;;;5.88;100.00
39309;BME280;26019;47.510;19.122;2024-03-08T07:58:15;100656.13;;;6.01;100.00
39309;BME280;26019;47.510;19.122;2024-03-08T08:08:19;100648.00;;;5.78;100.00
39309;BME280;26019;47.510;19.122;2024-03-08T08:18:20;100651.22;;;6.13;100.00
39309;BME280;26019;47.510;19.122;2024-03-08T08:28:27;100653.31;;;6.36;100.00
39309;BME280;26019;47.510;19.122;2024-03-08T08:38:31;100655.88;;;6.36;100.00
39309;BME280;26019;47.510;19.122;2024-03-08T08:48:34;100649.31;;;6.54;100.00
39309;BME280;26019;47.510;19.122;2024-03-08T08:58:41;100646.03;;;6.61;100.00
39309;BME280;26019;47.510;19.122;2024-03-08T09:08:48;100649.09;;;6.97;100.00
39309;BME280;26019;47.510;19.122;2024-03-08T09:18:51;100641.72;;;7.22;100.00
39309;BME280;26019;47.510;19.122;2024-03-08T09:28:52;100643.78;;;7.51;100.00
39309;BME280;26019;47.510;19.122;2024-03-08T09:38:56;100638.22;;;7.92;100.00
39309;BME280;26019;47.510;19.122;2024-03-08T09:48:58;100636.38;;;7.77;100.00
39309;BME280;26019;47.510;19.122;2024-03-08T09:59:01;100639.25;;;8.08;100.00
39309;BME280;26019;47.510;19.122;2024-03-08T10:09:22;100654.72;;;8.11;100.00
39309;BME280;26019;47.510;19.122;2024-03-08T10:19:27;100642.78;;;8.21;100.00
39309;BME280;26019;47.510;19.122;2024-03-08T10:29:33;100652.38;;;8.37;100.00
39309;BME280;26019;47.510;19.122;2024-03-08T10:39:40;100638.97;;;8.82;100.00
39309;BME280;26019;47.510;19.122;2024-03-08T10:49:54;100634.94;;;9.29;100.00
39309;BME280;26019;47.510;19.122;2024-03-08T10:59:57;100641.53;;;8.73;100.00
39309;BME280;26019;47.510;19.122;2024-03-08T11:10:03;100636.22;;;8.52;100.00
39309;BME280;26019;47.510;19.122;2024-03-08T11:20:20;100630.28;;;8.61;100.00
39309;BME280;26019;47.510;19.122;2024-03-08T11:30:23;100624.47;;;7.88;100.00
39309;BME280;26019;47.510;19.122;2024-03-08T11:40:26;100626.38;;;9.39;100.00
39309;BME280;26019;47.510;19.122;2024-03-08T11:50:30;100615.09;;;7.97;100.00
39309;BME280;26019;47.510;19.122;2024-03-08T12:00:32;100595.72;;;8.39;100.00
39309;BME280;26019;47.510;19.122;2024-03-08T12:10:38;100593.09;;;8.33;100.00
39309;BME280;26019;47.510;19.122;2024-03-08T12:20:40;100588.28;;;8.81;100.00
39309;BME280;26019;47.510;19.122;2024-03-08T12:30:48;100588.16;;;8.55;100.00
39309;BME280;26019;47.510;19.122;2024-03-08T12:40:50;100575.53;;;9.04;100.00
39309;BME280;26019;47.510;19.122;2024-03-08T12:50:52;100576.31;;;8.85;100.00
39309;BME280;26019;47.510;19.122;2024-03-08T13:00:55;100571.56;;;8.23;100.00
39309;BME280;26019;47.510;19.122;2024-03-08T13:10:57;100565.47;;;8.10;100.00
39309;BME280;26019;47.510;19.122;2024-03-08T13:21:01;100561.03;;;7.90;100.00
39309;BME280;26019;47.510;19.122;2024-03-08T13:31:12;100551.75;;;8.11;100.00
39309;BME280;26019;47.510;19.122;2024-03-08T13:41:18;100548.44;;;8.25;100.00
39309;BME280;26019;47.510;19.122;2024-03-08T13:51:24;100549.25;;;8.20;100.00
39309;BME280;26019;47.510;19.122;2024-03-08T14:01:29;100544.13;;;8.24;100.00
39309;BME280;26019;47.510;19.122;2024-03-08T14:11:46;100537.19;;;8.18;100.00
39309;BME280;26019;47.510;19.122;2024-03-08T14:21:48;100532.97;;;8.21;100.00
39309;BME280;26019;47.510;19.122;2024-03-08T14:31:58;100536.31;;;8.13;100.00
39309;BME280;26019;47.510;19.122;2024-03-08T14:42:01;100530.19;;;8.00;100.00
39309;BME280;26019;47.510;19.122;2024-03-08T14:52:05;100523.06;;;7.68;100.00
39309;BME280;26019;47.510;19.122;2024-03-08T15:02:27;100521.16;;;7.46;100.00
39309;BME280;26019;47.510;19.122;2024-03-08T15:12:29;100515.28;;;7.60;100.00
39309;BME280;26019;47.510;19.122;2024-03-08T15:22:31;100511.75;;;7.47;100.00
39309;BME280;26019;47.510;19.122;2024-03-08T15:32:33;100515.97;;;7.40;100.00
39309;BME280;26019;47.510;19.122;2024-03-08T15:42:35;100514.13;;;7.30;100.00
39309;BME280;26019;47.510;19.122;2024-03-08T15:52:46;100518.47;;;7.36;100.00
39309;BME280;26019;47.510;19.122;2024-03-08T16:02:53;100516.56;;;7.16;100.00
39309;BME280;26019;47.510;19.122;2024-03-08T16:12:56;100514.13;;;7.28;100.00
39309;BME280;26019;47.510;19.122;2024-03-08T16:22:58;100516.53;;;7.14;100.00
39309;BME280;26019;47.510;19.122;2024-03-08T16:33:00;100518.25;;;7.14;100.00
39309;BME280;26019;47.510;19.122;2024-03-08T16:43:02;100514.84;;;7.15;100.00
39309;BME280;26019;47.510;19.122;2024-03-08T16:53:07;100513.91;;;7.08;100.00
39309;BME280;26019;47.510;19.122;2024-03-08T17:03:11;100512.91;;;6.98;100.00
39309;BME280;26019;47.510;19.122;2024-03-08T17:13:14;100515.56;;;7.03;100.00
39309;BME280;26019;47.510;19.122;2024-03-08T17:23:18;100518.00;;;6.92;100.00
39309;BME280;26019;47.510;19.122;2024-03-08T17:33:26;100526.66;;;7.00;100.00
39309;BME280;26019;47.510;19.122;2024-03-08T17:43:34;100519.78;;;6.98;100.00
39309;BME280;26019;47.510;19.122;2024-03-08T17:53:40;100516.28;;;6.91;100.00
39309;BME280;26019;47.510;19.122;2024-03-08T18:03:43;100523.94;;;6.88;100.00
39309;BME280;26019;47.510;19.122;2024-03-08T18:13:45;100529.81;;;6.78;100.00
39309;BME280;26019;47.510;19.122;2024-03-08T18:23:51;100526.44;;;6.82;100.00
39309;BME280;26019;47.510;19.122;2024-03-08T18:34:08;100516.94;;;6.76;100.00
39309;BME280;26019;47.510;19.122;2024-03-08T18:44:12;100522.03;;;6.73;100.00
39309;BME280;26019;47.510;19.122;2024-03-08T18:54:15;100516.13;;;6.79;100.00
39309;BME280;26019;47.510;19.122;2024-03-08T19:04:17;100527.41;;;6.90;100.00
39309;BME280;26019;47.510;19.122;2024-03-08T19:14:21;100522.25;;;6.90;100.00
39309;BME280;26019;47.510;19.122;2024-03-08T19:24:23;100521.41;;;6.91;100.00
39309;BME280;26019;47.510;19.122;2024-03-08T19:34:24;100510.97;;;6.79;100.00
39309;BME280;26019;47.510;19.122;2024-03-08T19:44:29;100505.84;;;6.79;100.00
39309;BME280;26019;47.510;19.122;2024-03-08T19:54:32;100506.72;;;6.81;100.00
39309;BME280;26019;47.510;19.122;2024-03-08T20:04:37;100509.25;;;6.78;100.00
39309;BME280;26019;47.510;19.122;2024-03-08T20:14:39;100507.34;;;6.64;100.00
39309;BME280;26019;47.510;19.122;2024-03-08T20:24:42;100509.03;;;6.59;100.00
39309;BME280;26019;47.510;19.122;2024-03-08T20:34:46;100503.47;;;6.28;100.00
39309;BME280;26019;47.510;19.122;2024-03-08T20:44:49;100502.63;;;6.32;100.00
39309;BME280;26019;47.510;19.122;2024-03-08T20:54:53;100498.53;;;6.43;100.00
39309;BME280;26019;47.510;19.122;2024-03-08T21:04:57;100490.91;;;6.50;100.00
39309;BME280;26019;47.510;19.122;2024-03-08T21:15:00;100481.63;;;6.58;100.00
39309;BME280;26019;47.510;19.122;2024-03-08T21:25:06;100483.34;;;6.59;100.00
39309;BME280;26019;47.510;19.122;2024-03-08T21:35:09;100476.50;;;6.58;100.00
39309;BME280;26019;47.510;19.122;2024-03-08T21:45:12;100462.06;;;6.68;100.00
39309;BME280;26019;47.510;19.122;2024-03-08T21:55:21;100467.00;;;6.54;100.00
39309;BME280;26019;47.510;19.122;2024-03-08T22:05:31;100467.16;;;6.65;100.00
39309;BME280;26019;47.510;19.122;2024-03-08T22:15:35;100459.50;;;6.69;100.00
39309;BME280;26019;47.510;19.122;2024-03-08T22:25:37;100453.13;;;6.39;100.00
39309;BME280;26019;47.510;19.122;2024-03-08T22:35:40;100451.41;;;6.38;100.00
39309;BME280;26019;47.510;19.122;2024-03-08T22:45:44;100447.19;;;6.43;100.00
39309;BME280;26019;47.510;19.122;2024-03-08T22:55:49;100450.56;;;6.39;100.00
39309;BME280;26019;47.510;19.122;2024-03-08T23:05:54;100451.47;;;6.45;100.00
39309;BME280;26019;47.510;19.122;2024-03-08T23:15:59;100448.06;;;6.47;100.00
39309;BME280;26019;47.510;19.122;2024-03-08T23:26:03;100459.41;;;6.63;100.00
39309;BME280;26019;47.510;19.122;2024-03-08T23:36:06;100461.63;;;6.35;100.00
39309;BME280;26019;47.510;19.122;2024-03-08T23:46:10;100449.72;;;6.40;100.00
39309;BME280;26019;47.510;19.122;2024-03-08T23:56:13;100452.31;;;6.43;100.00
